Terminal Aerodrome Forecast
Issued by NWS

Home | Current Version | Previous Version | Text Only | Print | Product List | Glossary On
Versions: 1 2 3 4 5 6 7 8 9 10 11 12 13 14 15 16 17 18 19 20
000
FTUS45 KBOU 272055 AAA
TAFAPA
TAF AMD
KAPA 272055Z 2721/2818 VRB05KT P6SM SCT090 SCT150 BKN200
     FM280000 14008KT P6SM SCT080 BKN140
     FM280400 19007KT P6SM SCT080 SCT140 BKN200
     FM281000 VRB04KT P6SM SCT120 BKN200
     FM281700 33006KT P6SM SCT100 OVC200=

USA.gov is the U.S. government's official web portal to all federal, state and local government web resources and services.